Time;durP1;ratioP1;P1;durP2;ratioP2;P2;SDS_P1;SDS_P2;PMS_P1;PMS_P2;Temp;Humidity;BMP_temperature;BMP_pressure;BME280_temperature;BME280_humidity;BME280_pressure;Samples;Min_cycle;Max_cycle;Signal;HPM_P1;HPM_P2
2022/06/27 00:01:55;;;;;;;;;;;17.40;99.90;;;;;;5068925;28;19920;-65
2022/06/27 00:04:21;;;;;;;;;;;17.40;99.90;;;;;;5069064;28;20048;-65
2022/06/27 00:06:46;;;;;;;;;;;17.40;99.90;;;;;;5068839;28;20410;-66
2022/06/27 00:09:12;;;;;;;;;;;17.40;99.90;;;;;;5069326;28;19917;-66
2022/06/27 00:11:37;;;;;;;;;;;17.40;99.90;;;;;;5070260;28;19924;-65
2022/06/27 00:14:03;;;;;;;;;;;17.30;99.90;;;;;;5068862;28;19916;-65
2022/06/27 00:16:28;;;;;;;;;;;17.30;99.90;;;;;;5068910;28;19970;-65
2022/06/27 00:18:54;;;;;;;;;;;17.30;99.90;;;;;;5068648;28;19916;-65
2022/06/27 00:21:19;;;;;;;;;;;17.30;99.90;;;;;;5068792;28;19920;-65
2022/06/27 00:23:45;;;;;;;;;;;17.30;99.90;;;;;;5067803;28;19927;-65
2022/06/27 00:26:10;;;;;;;;;;;17.30;99.90;;;;;;5068772;28;20393;-65
2022/06/27 00:28:36;;;;;;;;;;;17.30;99.90;;;;;;5069149;28;19999;-65
2022/06/27 00:31:01;;;;;;;;;;;17.20;99.90;;;;;;5069958;28;20011;-65
2022/06/27 00:33:27;;;;;;;;;;;17.20;99.90;;;;;;5068774;28;19971;-65
2022/06/27 00:35:53;;;;;;;;;;;17.20;99.90;;;;;;5069593;28;20317;-65
2022/06/27 00:38:19;;;;;;;;;;;17.20;99.90;;;;;;5068880;28;19916;-65
2022/06/27 00:40:44;;;;;;;;;;;17.20;99.90;;;;;;5068352;28;20300;-65
2022/06/27 00:43:10;;;;;;;;;;;17.10;99.90;;;;;;5068904;28;20255;-65
2022/06/27 00:45:35;;;;;;;;;;;17.10;99.90;;;;;;5069724;28;19924;-65
2022/06/27 00:48:01;;;;;;;;;;;17.10;99.90;;;;;;5065519;28;19924;-66
2022/06/27 00:50:26;;;;;;;;;;;17.00;99.90;;;;;;5069463;28;19924;-66
2022/06/27 00:52:52;;;;;;;;;;;17.00;99.90;;;;;;5067856;28;20058;-65
2022/06/27 00:55:17;;;;;;;;;;;17.00;99.90;;;;;;5069846;28;19926;-65
2022/06/27 00:57:44;;;;;;;;;;;17.00;99.90;;;;;;5068131;28;19924;-65
2022/06/27 01:00:09;;;;;;;;;;;17.00;99.90;;;;;;5068378;28;20021;-65
2022/06/27 01:02:35;;;;;;;;;;;17.00;99.90;;;;;;5068042;28;19962;-65
2022/06/27 01:05:01;;;;;;;;;;;17.00;99.90;;;;;;5067835;28;19999;-66
2022/06/27 01:07:26;;;;;;;;;;;17.00;99.90;;;;;;5067816;28;20015;-65
2022/06/27 01:09:52;;;;;;;;;;;17.00;99.90;;;;;;5068524;28;19917;-65
2022/06/27 01:12:18;;;;;;;;;;;17.00;99.90;;;;;;5068288;28;19947;-65
2022/06/27 01:14:44;;;;;;;;;;;17.00;99.90;;;;;;5068004;28;19920;-65
2022/06/27 01:17:11;;;;;;;;;;;17.00;99.90;;;;;;5067711;28;20264;-65
2022/06/27 01:19:37;;;;;;;;;;;16.90;99.90;;;;;;5068033;28;20015;-66
2022/06/27 01:22:06;;;;;;;;;;;16.90;99.90;;;;;;5068077;28;20458;-66
2022/06/27 01:24:32;;;;;;;;;;;16.90;99.90;;;;;;5051514;28;19917;-66
2022/06/27 01:26:58;;;;;;;;;;;16.90;99.90;;;;;;5051477;28;20379;-66
2022/06/27 01:29:23;;;;;;;;;;;16.80;99.90;;;;;;5069469;28;19977;-65
2022/06/27 01:31:49;;;;;;;;;;;16.80;99.90;;;;;;5068257;28;20259;-65
2022/06/27 01:34:15;;;;;;;;;;;16.80;99.90;;;;;;5069730;28;20278;-65
2022/06/27 01:36:44;;;;;;;;;;;16.80;99.90;;;;;;5073219;28;19923;-65
2022/06/27 01:39:10;;;;;;;;;;;16.80;99.90;;;;;;5071721;28;21205;-65
2022/06/27 01:41:37;;;;;;;;;;;16.80;99.90;;;;;;5071589;28;19920;-65
2022/06/27 01:44:03;;;;;;;;;;;16.80;99.90;;;;;;5055111;28;19947;-65
2022/06/27 01:46:42;;;;;;;;;;;16.80;99.90;;;;;;5071562;28;19920;-66
2022/06/27 01:49:07;;;;;;;;;;;16.80;99.90;;;;;;5071812;28;20420;-65
2022/06/27 01:51:34;;;;;;;;;;;16.80;99.90;;;;;;5071401;28;20003;-66
2022/06/27 01:53:59;;;;;;;;;;;16.70;99.90;;;;;;5071481;28;19927;-65
2022/06/27 01:56:25;;;;;;;;;;;16.70;99.90;;;;;;5071490;28;19920;-65
2022/06/27 01:58:52;;;;;;;;;;;16.70;99.90;;;;;;5071684;28;19917;-65
2022/06/27 02:01:18;;;;;;;;;;;16.70;99.90;;;;;;5071160;28;19916;-65
2022/06/27 02:03:44;;;;;;;;;;;16.70;99.90;;;;;;5072499;28;19939;-65
2022/06/27 02:06:10;;;;;;;;;;;16.70;99.90;;;;;;5072738;28;19928;-65
2022/06/27 02:08:41;;;;;;;;;;;16.70;99.90;;;;;;5070871;28;19970;-65
2022/06/27 02:11:07;;;;;;;;;;;16.70;99.90;;;;;;5071323;28;19932;-65
2022/06/27 02:13:33;;;;;;;;;;;16.70;99.90;;;;;;5070949;28;19955;-65
2022/06/27 02:16:06;;;;;;;;;;;16.60;99.90;;;;;;5070852;28;19982;-66
2022/06/27 02:18:32;;;;;;;;;;;16.70;99.90;;;;;;5070892;28;20003;-65
2022/06/27 02:20:58;;;;;;;;;;;16.60;99.90;;;;;;5054239;28;19970;-66
2022/06/27 02:23:23;;;;;;;;;;;16.60;99.90;;;;;;5054749;28;20014;-65
2022/06/27 02:25:50;;;;;;;;;;;16.60;99.90;;;;;;5072075;28;19972;-65
2022/06/27 02:28:16;;;;;;;;;;;16.60;99.90;;;;;;5070929;28;20298;-65
2022/06/27 02:30:42;;;;;;;;;;;16.60;99.90;;;;;;5070493;28;19927;-65
2022/06/27 02:33:08;;;;;;;;;;;16.60;99.90;;;;;;5070767;28;19959;-65
2022/06/27 02:35:34;;;;;;;;;;;16.60;99.90;;;;;;5071981;28;19994;-65
2022/06/27 02:38:00;;;;;;;;;;;16.60;99.90;;;;;;5067215;28;20007;-65
2022/06/27 02:40:29;;;;;;;;;;;16.60;99.90;;;;;;5071475;28;19924;-65
2022/06/27 02:42:55;;;;;;;;;;;16.60;99.90;;;;;;5070096;28;19917;-65
2022/06/27 02:45:21;;;;;;;;;;;16.60;99.90;;;;;;5068802;28;20348;-65
2022/06/27 02:47:47;;;;;;;;;;;16.60;99.90;;;;;;5069914;28;19959;-66
2022/06/27 02:50:13;;;;;;;;;;;16.60;99.90;;;;;;5070048;28;20291;-65
2022/06/27 02:52:41;;;;;;;;;;;16.60;99.90;;;;;;5070353;28;19917;-65
2022/06/27 02:55:12;;;;;;;;;;;16.60;99.90;;;;;;5069759;28;19991;-65
2022/06/27 02:57:44;;;;;;;;;;;16.60;99.90;;;;;;5070992;28;19932;-65
2022/06/27 03:00:10;;;;;;;;;;;16.70;99.90;;;;;;5071121;28;19971;-65
2022/06/27 03:02:36;;;;;;;;;;;16.60;99.90;;;;;;5069888;28;20358;-65
2022/06/27 03:05:03;;;;;;;;;;;16.60;99.90;;;;;;5069760;28;19927;-65
2022/06/27 03:07:28;;;;;;;;;;;16.60;99.90;;;;;;5071030;28;20027;-65
2022/06/27 03:09:54;;;;;;;;;;;16.60;99.90;;;;;;5068970;28;20341;-66
2022/06/27 03:12:19;;;;;;;;;;;16.60;99.90;;;;;;5069760;28;19963;-66
2022/06/27 03:14:45;;;;;;;;;;;16.60;99.90;;;;;;5071051;28;19916;-65
2022/06/27 03:17:10;;;;;;;;;;;16.60;99.90;;;;;;5069694;28;19965;-65
2022/06/27 03:19:36;;;;;;;;;;;16.60;99.90;;;;;;5053436;28;19940;-65
2022/06/27 03:22:01;;;;;;;;;;;16.60;99.90;;;;;;5069564;28;19916;-66
2022/06/27 03:24:27;;;;;;;;;;;16.60;99.90;;;;;;5070064;28;19924;-65
2022/06/27 03:26:52;;;;;;;;;;;16.60;99.90;;;;;;5069407;28;19928;-65
2022/06/27 03:29:18;;;;;;;;;;;16.60;99.90;;;;;;5069816;28;19973;-66
2022/06/27 03:31:44;;;;;;;;;;;16.60;99.90;;;;;;5053371;28;19983;-64
2022/06/27 03:34:10;;;;;;;;;;;16.60;99.90;;;;;;5070757;28;19916;-66
2022/06/27 03:36:36;;;;;;;;;;;16.60;99.90;;;;;;5069680;28;19927;-65
2022/06/27 03:39:01;;;;;;;;;;;16.70;99.90;;;;;;5069345;28;19923;-65
2022/06/27 03:41:27;;;;;;;;;;;16.70;99.90;;;;;;5069057;28;19920;-66
2022/06/27 03:43:52;;;;;;;;;;;16.60;99.90;;;;;;5069291;28;19928;-65
2022/06/27 03:46:18;;;;;;;;;;;16.70;99.90;;;;;;5069107;28;19921;-65
2022/06/27 03:51:28;;;;;;;;;;;16.70;99.90;;;;;;5070814;28;19922;-66
2022/06/27 03:53:53;;;;;;;;;;;16.70;99.90;;;;;;5069026;28;19920;-65
2022/06/27 03:56:19;;;;;;;;;;;16.70;99.90;;;;;;5069084;28;19959;-65
2022/06/27 03:58:45;;;;;;;;;;;16.70;99.90;;;;;;5069193;28;19924;-65
2022/06/27 04:01:10;;;;;;;;;;;16.70;99.90;;;;;;5069308;28;20298;-66
2022/06/27 04:03:36;;;;;;;;;;;16.70;99.90;;;;;;5068810;28;19939;-65
2022/06/27 04:06:01;;;;;;;;;;;16.70;99.90;;;;;;5069254;28;19928;-65
2022/06/27 04:08:27;;;;;;;;;;;16.70;99.90;;;;;;5068655;28;19924;-66
2022/06/27 04:10:53;;;;;;;;;;;16.70;99.90;;;;;;5070539;28;20307;-66
2022/06/27 04:13:19;;;;;;;;;;;16.70;99.90;;;;;;5069127;28;19932;-66
2022/06/27 04:15:44;;;;;;;;;;;16.70;99.90;;;;;;5069176;28;19917;-66
2022/06/27 04:18:10;;;;;;;;;;;16.60;99.90;;;;;;5069283;28;19916;-66
2022/06/27 04:20:35;;;;;;;;;;;16.60;99.90;;;;;;5070028;28;20011;-66
2022/06/27 04:23:01;;;;;;;;;;;16.60;99.90;;;;;;5070228;28;19963;-65
2022/06/27 04:25:27;;;;;;;;;;;16.60;99.90;;;;;;5069868;28;20458;-65
2022/06/27 04:27:52;;;;;;;;;;;16.60;99.90;;;;;;5068786;28;19958;-66
2022/06/27 04:30:18;;;;;;;;;;;16.60;99.90;;;;;;5049459;28;20264;-65
2022/06/27 04:32:44;;;;;;;;;;;16.60;99.90;;;;;;5051556;28;20391;-65
2022/06/27 04:35:10;;;;;;;;;;;16.60;99.90;;;;;;5068261;28;19947;-65
2022/06/27 04:37:41;;;;;;;;;;;16.60;99.90;;;;;;5069643;28;19920;-66
2022/06/27 04:40:08;;;;;;;;;;;16.60;99.90;;;;;;5068529;28;20333;-65
2022/06/27 04:42:33;;;;;;;;;;;16.60;99.90;;;;;;5068710;28;19973;-65
2022/06/27 04:44:59;;;;;;;;;;;16.60;99.90;;;;;;5068508;28;19920;-66
2022/06/27 04:47:25;;;;;;;;;;;16.60;99.90;;;;;;5068124;28;19920;-65
2022/06/27 04:49:51;;;;;;;;;;;16.60;99.90;;;;;;5068068;28;19916;-65
2022/06/27 04:52:18;;;;;;;;;;;16.60;99.90;;;;;;5068088;28;19920;-65
2022/06/27 04:54:43;;;;;;;;;;;16.60;99.90;;;;;;5068076;28;19928;-66
2022/06/27 04:57:09;;;;;;;;;;;16.60;99.90;;;;;;5068285;28;19917;-66
2022/06/27 04:59:35;;;;;;;;;;;16.60;99.90;;;;;;5068289;28;20363;-66
2022/06/27 05:02:00;;;;;;;;;;;16.60;99.90;;;;;;5068906;28;19977;-65
2022/06/27 05:04:28;;;;;;;;;;;16.60;99.90;;;;;;5068348;28;20505;-65
2022/06/27 05:06:55;;;;;;;;;;;16.50;99.90;;;;;;5069552;28;19924;-66
2022/06/27 05:09:21;;;;;;;;;;;16.60;99.90;;;;;;5069992;28;19928;-65
2022/06/27 05:11:50;;;;;;;;;;;16.60;99.90;;;;;;5072272;28;19924;-66
2022/06/27 05:14:16;;;;;;;;;;;16.60;99.90;;;;;;5055345;28;20137;-65
2022/06/27 05:16:41;;;;;;;;;;;16.60;99.90;;;;;;5072044;28;19999;-66
2022/06/27 05:19:07;;;;;;;;;;;16.60;99.90;;;;;;5072559;28;19923;-65
2022/06/27 05:21:33;;;;;;;;;;;16.60;99.90;;;;;;5071904;28;19928;-65
2022/06/27 05:23:58;;;;;;;;;;;16.60;99.90;;;;;;5072223;28;19924;-65
2022/06/27 05:26:24;;;;;;;;;;;16.70;99.90;;;;;;5071887;28;19928;-66
2022/06/27 05:28:50;;;;;;;;;;;16.70;99.90;;;;;;5071791;28;19924;-66
2022/06/27 05:31:15;;;;;;;;;;;16.70;99.90;;;;;;5071919;28;19959;-66
2022/06/27 05:33:42;;;;;;;;;;;16.70;99.90;;;;;;5072806;28;20381;-65
2022/06/27 05:36:07;;;;;;;;;;;16.70;99.90;;;;;;5072029;28;19964;-66
2022/06/27 05:38:33;;;;;;;;;;;16.80;99.90;;;;;;5055248;28;20405;-66
2022/06/27 05:40:59;;;;;;;;;;;16.90;99.90;;;;;;5072905;28;19924;-65
2022/06/27 05:43:25;;;;;;;;;;;16.90;99.90;;;;;;5054989;28;19920;-66
2022/06/27 05:45:52;;;;;;;;;;;17.00;99.90;;;;;;5071770;28;20394;-65
2022/06/27 05:48:19;;;;;;;;;;;17.00;99.90;;;;;;5071546;28;20342;-65
2022/06/27 05:50:44;;;;;;;;;;;17.00;99.90;;;;;;5072546;28;20001;-65
2022/06/27 05:53:10;;;;;;;;;;;17.00;99.90;;;;;;5071431;28;19920;-65
2022/06/27 05:55:38;;;;;;;;;;;17.00;99.90;;;;;;5071765;28;19923;-65
2022/06/27 05:58:04;;;;;;;;;;;17.00;99.90;;;;;;5071927;28;19922;-65
2022/06/27 06:00:30;;;;;;;;;;;17.00;99.90;;;;;;5071158;28;19931;-65
2022/06/27 06:02:57;;;;;;;;;;;16.90;99.90;;;;;;5071346;28;19974;-65
2022/06/27 06:05:23;;;;;;;;;;;16.90;99.90;;;;;;5071260;28;20029;-65
2022/06/27 06:07:49;;;;;;;;;;;16.90;99.90;;;;;;5054330;28;20011;-66
2022/06/27 06:10:15;;;;;;;;;;;16.90;99.90;;;;;;5071163;28;19917;-65
2022/06/27 06:12:41;;;;;;;;;;;16.90;99.90;;;;;;5054300;28;19916;-66
2022/06/27 06:15:08;;;;;;;;;;;16.90;99.90;;;;;;5072459;28;20000;-66
2022/06/27 06:17:36;;;;;;;;;;;16.80;99.90;;;;;;5071105;28;20310;-66
2022/06/27 06:20:04;;;;;;;;;;;16.90;99.90;;;;;;5067471;28;19927;-66
2022/06/27 06:22:29;;;;;;;;;;;16.80;99.90;;;;;;5071952;28;20007;-65
2022/06/27 06:24:55;;;;;;;;;;;16.80;99.90;;;;;;5070760;28;20337;-66
2022/06/27 06:27:21;;;;;;;;;;;16.90;99.90;;;;;;5072103;28;19984;-66
2022/06/27 06:29:47;;;;;;;;;;;16.90;99.90;;;;;;5070109;28;19916;-65
2022/06/27 06:32:12;;;;;;;;;;;16.90;99.90;;;;;;5070667;28;19916;-66
2022/06/27 06:34:38;;;;;;;;;;;16.90;99.90;;;;;;5070422;28;19921;-66
2022/06/27 06:37:05;;;;;;;;;;;16.90;99.90;;;;;;5070100;28;19917;-66
2022/06/27 06:39:31;;;;;;;;;;;16.90;99.90;;;;;;5071199;28;19928;-66
2022/06/27 06:41:59;;;;;;;;;;;16.90;99.90;;;;;;5071386;28;19916;-65
2022/06/27 06:44:25;;;;;;;;;;;16.90;99.90;;;;;;5071608;28;19938;-66
2022/06/27 06:46:52;;;;;;;;;;;16.90;99.90;;;;;;5069923;28;20047;-66
2022/06/27 06:49:20;;;;;;;;;;;16.90;99.90;;;;;;5071356;28;19923;-65
2022/06/27 06:51:46;;;;;;;;;;;17.00;99.90;;;;;;5069769;28;19921;-65
2022/06/27 06:54:12;;;;;;;;;;;17.00;99.90;;;;;;5070189;28;20367;-65
2022/06/27 06:56:38;;;;;;;;;;;17.10;99.90;;;;;;5070056;28;19916;-66
2022/06/27 06:59:04;;;;;;;;;;;17.10;99.90;;;;;;5070030;28;19961;-66
2022/06/27 07:01:33;;;;;;;;;;;17.10;99.90;;;;;;5069954;28;19920;-65
2022/06/27 07:03:59;;;;;;;;;;;17.10;99.90;;;;;;5071716;28;19920;-65
2022/06/27 07:06:25;;;;;;;;;;;17.10;99.90;;;;;;5071485;28;19970;-66
2022/06/27 07:08:53;;;;;;;;;;;17.10;99.90;;;;;;5070075;28;20298;-65
2022/06/27 07:11:22;;;;;;;;;;;17.10;99.90;;;;;;5069865;28;20267;-65
2022/06/27 07:13:49;;;;;;;;;;;17.20;99.90;;;;;;5069886;28;19970;-66
2022/06/27 07:16:15;;;;;;;;;;;17.30;99.90;;;;;;5069668;28;20366;-66
2022/06/27 07:18:41;;;;;;;;;;;17.30;99.90;;;;;;5071289;28;20324;-66
2022/06/27 07:21:08;;;;;;;;;;;17.40;99.90;;;;;;5071327;28;19925;-65
2022/06/27 07:23:33;;;;;;;;;;;17.40;99.90;;;;;;5069689;28;19920;-65
2022/06/27 07:25:59;;;;;;;;;;;17.40;99.90;;;;;;5070125;28;19986;-66
2022/06/27 07:28:28;;;;;;;;;;;17.20;99.90;;;;;;5069512;28;20412;-66
2022/06/27 07:30:53;;;;;;;;;;;17.30;99.90;;;;;;5069544;28;19951;-65
2022/06/27 07:33:19;;;;;;;;;;;17.30;99.90;;;;;;5069441;28;20339;-65
2022/06/27 07:35:44;;;;;;;;;;;17.30;99.90;;;;;;5069863;28;19966;-65
2022/06/27 07:38:12;;;;;;;;;;;17.30;99.90;;;;;;5069428;28;19961;-66
2022/06/27 07:40:38;;;;;;;;;;;17.30;99.90;;;;;;5070334;28;19925;-66
2022/06/27 07:43:05;;;;;;;;;;;17.30;99.90;;;;;;5071083;28;19920;-65
2022/06/27 07:45:30;;;;;;;;;;;17.40;99.90;;;;;;5070420;28;19917;-66
2022/06/27 07:47:56;;;;;;;;;;;17.40;99.90;;;;;;5069290;28;19927;-65
2022/06/27 07:50:37;;;;;;;;;;;17.40;99.90;;;;;;5069063;28;20032;-65
2022/06/27 07:53:13;;;;;;;;;;;17.50;99.90;;;;;;5069157;28;19922;-65
2022/06/27 07:55:43;;;;;;;;;;;17.60;99.90;;;;;;5069179;28;19916;-65
2022/06/27 07:58:13;;;;;;;;;;;17.70;99.90;;;;;;5070513;28;19920;-66
2022/06/27 08:00:39;;;;;;;;;;;17.70;99.90;;;;;;5068969;28;19916;-65
2022/06/27 08:03:36;;;;;;;;;;;17.80;99.90;;;;;;5069180;28;19917;-65
2022/06/27 08:05:51;;;;;;;;;;;17.90;99.90;;;;;;5068955;28;19963;-67
2022/06/27 08:08:17;;;;;;;;;;;18.00;99.90;;;;;;5069203;28;19982;-65
2022/06/27 08:10:43;;;;;;;;;;;18.10;99.90;;;;;;5066353;28;19921;-65
2022/06/27 08:13:08;;;;;;;;;;;18.10;99.90;;;;;;5069912;28;19965;-66
2022/06/27 08:15:34;;;;;;;;;;;18.20;99.90;;;;;;5068406;28;19920;-65
2022/06/27 08:18:00;;;;;;;;;;;18.30;99.90;;;;;;5068790;28;20335;-66
2022/06/27 08:20:26;;;;;;;;;;;18.30;99.90;;;;;;5068360;28;19963;-65
2022/06/27 08:22:52;;;;;;;;;;;18.30;99.90;;;;;;5068654;28;19959;-65
2022/06/27 08:25:17;;;;;;;;;;;18.30;99.90;;;;;;5068678;28;19947;-65
2022/06/27 08:27:45;;;;;;;;;;;18.20;99.90;;;;;;5069651;28;20298;-65
2022/06/27 08:30:14;;;;;;;;;;;18.20;99.90;;;;;;5069746;28;20363;-66
2022/06/27 08:32:40;;;;;;;;;;;18.20;99.90;;;;;;5068284;28;19920;-66
2022/06/27 08:35:06;;;;;;;;;;;18.20;99.90;;;;;;5052083;28;19920;-65
2022/06/27 08:37:33;;;;;;;;;;;18.20;99.90;;;;;;5068797;28;19923;-66
2022/06/27 08:39:59;;;;;;;;;;;18.30;99.90;;;;;;5068187;28;19928;-66
2022/06/27 08:42:25;;;;;;;;;;;18.30;99.90;;;;;;5068116;28;20534;-65
2022/06/27 08:44:51;;;;;;;;;;;18.40;99.90;;;;;;5071070;28;19960;-65
2022/06/27 08:47:16;;;;;;;;;;;18.50;99.90;;;;;;5073959;28;19999;-65
2022/06/27 08:49:43;;;;;;;;;;;18.60;99.90;;;;;;5072896;28;19917;-66
2022/06/27 08:52:09;;;;;;;;;;;18.80;99.90;;;;;;5073841;28;20003;-65
2022/06/27 08:54:36;;;;;;;;;;;18.90;99.90;;;;;;5072558;28;19956;-65
2022/06/27 08:57:02;;;;;;;;;;;19.10;99.90;;;;;;5073640;28;19924;-66
2022/06/27 08:59:28;;;;;;;;;;;19.20;99.90;;;;;;5072820;28;19981;-65
2022/06/27 09:01:53;;;;;;;;;;;19.40;99.90;;;;;;5072619;28;20367;-65
2022/06/27 09:04:20;;;;;;;;;;;19.50;99.90;;;;;;5072510;28;19963;-66
2022/06/27 09:06:45;;;;;;;;;;;19.50;99.90;;;;;;5073455;28;20302;-65
2022/06/27 09:09:14;;;;;;;;;;;19.40;99.90;;;;;;5072094;28;19920;-65
2022/06/27 09:11:41;;;;;;;;;;;19.30;99.90;;;;;;5072481;28;19920;-66
2022/06/27 09:14:27;;;;;;;;;;;19.30;99.90;;;;;;5073406;28;20294;-65
2022/06/27 09:16:57;;;;;;;;;;;19.20;99.90;;;;;;5071911;28;20034;-65
2022/06/27 09:19:43;;;;;;;;;;;19.10;99.90;;;;;;5072044;28;19927;-66
2022/06/27 09:22:09;;;;;;;;;;;19.00;99.90;;;;;;5072023;28;19927;-65
2022/06/27 09:24:35;;;;;;;;;;;19.00;99.90;;;;;;5072254;28;20053;-66
2022/06/27 09:27:03;;;;;;;;;;;19.00;99.90;;;;;;5071890;28;20407;-66
2022/06/27 09:29:29;;;;;;;;;;;18.90;99.90;;;;;;5071858;28;20363;-67
2022/06/27 09:31:55;;;;;;;;;;;18.90;99.90;;;;;;5073384;28;19927;-65
2022/06/27 09:34:24;;;;;;;;;;;19.00;99.90;;;;;;5071988;28;19916;-65
2022/06/27 09:37:01;;;;;;;;;;;19.00;99.90;;;;;;5073137;28;20284;-65
2022/06/27 09:39:29;;;;;;;;;;;19.10;99.90;;;;;;5071302;28;19916;-66
2022/06/27 09:41:59;;;;;;;;;;;19.10;99.90;;;;;;5053654;28;20386;-65
2022/06/27 09:44:26;;;;;;;;;;;19.10;99.90;;;;;;5070599;28;19963;-65
2022/06/27 09:47:01;;;;;;;;;;;19.20;99.90;;;;;;5071946;28;19921;-65
2022/06/27 09:49:30;;;;;;;;;;;19.20;99.90;;;;;;5070282;28;19916;-66
2022/06/27 09:51:56;;;;;;;;;;;19.10;99.90;;;;;;5070374;28;19964;-65
2022/06/27 09:54:23;;;;;;;;;;;19.20;99.90;;;;;;5069963;28;20009;-66
2022/06/27 09:56:50;;;;;;;;;;;19.20;99.90;;;;;;5070419;28;20039;-65
2022/06/27 09:59:16;;;;;;;;;;;19.30;99.90;;;;;;5070283;28;19943;-66
2022/06/27 10:01:43;;;;;;;;;;;19.20;99.90;;;;;;5067510;28;20014;-66
2022/06/27 10:04:09;;;;;;;;;;;19.30;99.90;;;;;;5069141;28;19916;-66
2022/06/27 10:06:36;;;;;;;;;;;19.20;99.90;;;;;;5071156;28;19927;-66
2022/06/27 10:09:08;;;;;;;;;;;19.30;99.90;;;;;;5069600;28;19923;-66
2022/06/27 10:11:34;;;;;;;;;;;19.30;99.90;;;;;;5069490;28;19960;-65
2022/06/27 10:14:18;;;;;;;;;;;19.30;99.90;;;;;;5071039;28;20347;-66
2022/06/27 10:16:51;;;;;;;;;;;19.20;99.90;;;;;;5069480;28;19920;-65
2022/06/27 10:19:17;;;;;;;;;;;19.10;99.90;;;;;;5069879;28;19916;-65
2022/06/27 10:21:45;;;;;;;;;;;19.10;99.90;;;;;;5070463;28;19923;-66
2022/06/27 10:24:27;;;;;;;;;;;19.10;99.90;;;;;;5070904;28;20014;-66
2022/06/27 10:26:57;;;;;;;;;;;19.10;99.90;;;;;;5069389;28;19920;-65
2022/06/27 10:29:29;;;;;;;;;;;19.00;99.90;;;;;;5069608;28;19925;-66
2022/06/27 10:31:55;;;;;;;;;;;19.10;99.90;;;;;;5069259;28;19951;-65
2022/06/27 10:34:47;;;;;;;;;;;19.10;99.90;;;;;;5069467;28;20007;-65
2022/06/27 10:37:19;;;;;;;;;;;19.10;99.90;;;;;;5070831;28;19916;-65
2022/06/27 10:39:45;;;;;;;;;;;19.10;99.90;;;;;;5031570;28;1073394;-66
2022/06/27 10:42:30;;;;;;;;;;;19.10;99.90;;;;;;5070163;28;19916;-66
2022/06/27 10:45:16;;;;;;;;;;;19.20;99.90;;;;;;5069417;28;20341;-64
2022/06/27 10:47:41;;;;;;;;;;;19.10;99.90;;;;;;5053906;28;19920;-65
2022/06/27 10:50:11;;;;;;;;;;;19.00;99.90;;;;;;5063765;28;19923;-65
2022/06/27 10:52:36;;;;;;;;;;;19.10;99.90;;;;;;5065740;28;19989;-66
2022/06/27 10:55:19;;;;;;;;;;;19.10;99.90;;;;;;5064560;28;19963;-65
2022/06/27 10:57:44;;;;;;;;;;;19.20;99.90;;;;;;5065396;28;19920;-65
2022/06/27 11:00:10;;;;;;;;;;;19.20;99.90;;;;;;5067182;28;19924;-66
2022/06/27 11:02:36;;;;;;;;;;;19.20;99.90;;;;;;5065659;28;20398;-65
2022/06/27 11:05:02;;;;;;;;;;;19.30;99.90;;;;;;5067970;28;20363;-65
2022/06/27 11:07:28;;;;;;;;;;;19.40;99.90;;;;;;5066569;28;19927;-66
2022/06/27 11:09:54;;;;;;;;;;;19.50;99.90;;;;;;5070015;28;19917;-64
2022/06/27 11:12:22;;;;;;;;;;;19.70;99.90;;;;;;5051501;28;19943;-66
2022/06/27 11:14:57;;;;;;;;;;;19.70;99.90;;;;;;5067628;28;19916;-65
2022/06/27 11:17:26;;;;;;;;;;;19.70;99.90;;;;;;5066647;28;19965;-65
2022/06/27 11:20:07;;;;;;;;;;;19.70;99.90;;;;;;5069356;28;20029;-66
2022/06/27 11:22:32;;;;;;;;;;;19.70;99.90;;;;;;5069092;28;19927;-66
2022/06/27 11:24:58;;;;;;;;;;;19.80;99.90;;;;;;5068658;28;19916;-65
2022/06/27 11:27:23;;;;;;;;;;;19.90;99.90;;;;;;5064904;28;19931;-65
2022/06/27 11:32:33;;;;;;;;;;;20.00;99.90;;;;;;5081228;28;19951;-66
2022/06/27 11:34:59;;;;;;;;;;;20.00;99.90;;;;;;5069435;28;20334;-66
2022/06/27 11:37:27;;;;;;;;;;;20.00;99.90;;;;;;5064222;28;19924;-65
2022/06/27 11:40:00;;;;;;;;;;;20.10;99.90;;;;;;5067771;28;20397;-65
2022/06/27 11:42:29;;;;;;;;;;;20.10;99.90;;;;;;5065412;28;20408;-65
2022/06/27 11:45:05;;;;;;;;;;;20.20;99.90;;;;;;5050316;28;19916;-66
2022/06/27 11:47:32;;;;;;;;;;;20.20;99.90;;;;;;5062554;28;20287;-65
2022/06/27 11:50:02;;;;;;;;;;;20.30;99.90;;;;;;5069037;28;19970;-65
2022/06/27 11:52:37;;;;;;;;;;;20.30;99.90;;;;;;5065809;28;19923;-62
2022/06/27 11:55:10;;;;;;;;;;;20.30;99.90;;;;;;5067348;28;20394;-63
2022/06/27 11:57:36;;;;;;;;;;;20.30;99.90;;;;;;5066746;28;20279;-64
2022/06/27 12:00:04;;;;;;;;;;;20.30;99.90;;;;;;5068868;28;20006;-64
2022/06/27 12:02:31;;;;;;;;;;;20.40;99.90;;;;;;5069396;28;19925;-64
2022/06/27 12:05:02;;;;;;;;;;;20.40;99.90;;;;;;5069400;28;19924;-65
2022/06/27 12:07:28;;;;;;;;;;;20.50;99.90;;;;;;5068433;28;20291;-65
2022/06/27 12:09:53;;;;;;;;;;;20.70;99.90;;;;;;5068047;28;19924;-63
2022/06/27 12:12:19;;;;;;;;;;;20.80;99.90;;;;;;5065627;28;20375;-66
2022/06/27 12:14:46;;;;;;;;;;;20.90;99.90;;;;;;5066344;28;19916;-65
2022/06/27 12:17:12;;;;;;;;;;;21.00;99.90;;;;;;5068394;28;19916;-65
2022/06/27 12:19:40;;;;;;;;;;;21.10;99.90;;;;;;5067840;28;19916;-66
2022/06/27 12:22:06;;;;;;;;;;;21.10;99.90;;;;;;5067592;28;20707;-66
2022/06/27 12:24:32;;;;;;;;;;;21.20;99.90;;;;;;5048660;28;20010;-66
2022/06/27 12:26:57;;;;;;;;;;;21.20;99.90;;;;;;5073711;28;19920;-66
2022/06/27 12:29:23;;;;;;;;;;;21.20;99.90;;;;;;5068703;28;19932;-66
2022/06/27 12:31:49;;;;;;;;;;;21.20;99.90;;;;;;5065714;28;20421;-64
2022/06/27 12:34:15;;;;;;;;;;;21.10;99.90;;;;;;5061614;28;20034;-66
2022/06/27 12:36:40;;;;;;;;;;;21.20;99.90;;;;;;5068034;28;19970;-65
2022/06/27 12:39:06;;;;;;;;;;;21.20;99.90;;;;;;5067433;28;20367;-65
2022/06/27 12:41:32;;;;;;;;;;;21.20;99.90;;;;;;5068601;28;20064;-65
2022/06/27 12:43:58;;;;;;;;;;;21.20;99.90;;;;;;5065940;28;19922;-66
2022/06/27 12:46:24;;;;;;;;;;;21.10;99.90;;;;;;5067363;28;19927;-66
2022/06/27 12:48:50;;;;;;;;;;;21.10;99.90;;;;;;5066769;28;19927;-66
2022/06/27 12:51:16;;;;;;;;;;;21.00;99.90;;;;;;5068462;28;19917;-66
2022/06/27 12:53:42;;;;;;;;;;;20.90;99.90;;;;;;5061177;28;19978;-66
2022/06/27 12:56:08;;;;;;;;;;;20.80;99.90;;;;;;5062451;28;19921;-65
2022/06/27 12:58:34;;;;;;;;;;;20.70;99.90;;;;;;5068374;28;19926;-65
2022/06/27 13:01:00;;;;;;;;;;;20.60;99.90;;;;;;5064084;28;19917;-65
2022/06/27 13:03:26;;;;;;;;;;;20.50;99.90;;;;;;5069234;28;20378;-64
2022/06/27 13:05:52;;;;;;;;;;;20.40;99.90;;;;;;5065756;28;19963;-65
2022/06/27 13:08:18;;;;;;;;;;;20.40;99.90;;;;;;5066677;28;19930;-65
2022/06/27 13:10:43;;;;;;;;;;;20.40;99.90;;;;;;5067036;28;20010;-66
2022/06/27 13:13:09;;;;;;;;;;;20.40;99.90;;;;;;5068927;28;19973;-65
2022/06/27 13:15:35;;;;;;;;;;;20.40;99.90;;;;;;5068074;28;20329;-64
2022/06/27 13:18:02;;;;;;;;;;;20.40;99.90;;;;;;5066005;28;20015;-66
2022/06/27 13:20:28;;;;;;;;;;;20.50;99.90;;;;;;5068285;28;20022;-65
2022/06/27 13:22:53;;;;;;;;;;;20.50;99.90;;;;;;5066077;28;19932;-64
2022/06/27 13:25:19;;;;;;;;;;;20.50;99.90;;;;;;5083529;28;19970;-64
2022/06/27 13:27:48;;;;;;;;;;;20.50;99.90;;;;;;5067487;28;19985;-64
2022/06/27 13:30:14;;;;;;;;;;;20.40;99.90;;;;;;5069400;28;19927;-64
2022/06/27 13:32:40;;;;;;;;;;;20.30;99.90;;;;;;5069300;28;20014;-65
2022/06/27 13:35:06;;;;;;;;;;;20.30;99.90;;;;;;5067724;28;19994;-64
2022/06/27 13:37:31;;;;;;;;;;;20.20;99.90;;;;;;5067365;28;19924;-65
2022/06/27 13:39:57;;;;;;;;;;;20.10;99.90;;;;;;5069520;28;19920;-66
2022/06/27 13:42:22;;;;;;;;;;;20.00;99.90;;;;;;5071046;28;20367;-64
2022/06/27 13:44:48;;;;;;;;;;;20.00;99.90;;;;;;5064634;28;19944;-65
2022/06/27 13:47:14;;;;;;;;;;;20.10;99.90;;;;;;5070871;28;20019;-64
2022/06/27 13:49:39;;;;;;;;;;;20.10;99.90;;;;;;5064918;28;19924;-66
2022/06/27 13:52:05;;;;;;;;;;;20.20;99.90;;;;;;5061933;28;20014;-65
2022/06/27 13:54:31;;;;;;;;;;;20.20;99.90;;;;;;5064603;28;20062;-66
2022/06/27 13:56:56;;;;;;;;;;;20.20;99.90;;;;;;5061626;28;19931;-65
2022/06/27 13:59:22;;;;;;;;;;;20.10;99.90;;;;;;5062131;28;19920;-64
2022/06/27 14:01:47;;;;;;;;;;;20.10;99.90;;;;;;5060880;28;19916;-65
2022/06/27 14:04:13;;;;;;;;;;;20.00;99.90;;;;;;5064859;28;19917;-65
2022/06/27 14:09:23;;;;;;;;;;;19.90;99.90;;;;;;5058935;28;19942;-66
2022/06/27 14:11:48;;;;;;;;;;;19.90;99.90;;;;;;5066012;28;20317;-65
2022/06/27 14:14:14;;;;;;;;;;;19.90;99.90;;;;;;5064703;28;19999;-65
2022/06/27 14:16:39;;;;;;;;;;;19.90;99.90;;;;;;5076577;28;20221;-65
2022/06/27 14:19:05;;;;;;;;;;;19.80;99.90;;;;;;5046261;28;19927;-65
2022/06/27 14:21:31;;;;;;;;;;;19.80;99.90;;;;;;5044403;28;19917;-66
2022/06/27 14:23:57;;;;;;;;;;;19.80;99.90;;;;;;5061949;28;19927;-65